sensor_id;sensor_type;location;lat;lon;timestamp;pressure;altitude;pressure_sealevel;temperature;humidity
32733;BME280;11867;51.198;11.966;2023-04-28T00:00:12;100702.28;;;8.96;69.90
32733;BME280;11867;51.198;11.966;2023-04-28T00:01:15;100703.16;;;9.02;69.94
32733;BME280;11867;51.198;11.966;2023-04-28T00:02:17;100701.25;;;9.02;70.23
32733;BME280;11867;51.198;11.966;2023-04-28T00:03:20;100704.38;;;8.84;70.18
32733;BME280;11867;51.198;11.966;2023-04-28T00:04:23;100704.13;;;8.85;70.37
32733;BME280;11867;51.198;11.966;2023-04-28T00:05:27;100695.66;;;8.82;70.69
32733;BME280;11867;51.198;11.966;2023-04-28T00:06:29;100690.81;;;8.89;70.53
32733;BME280;11867;51.198;11.966;2023-04-28T00:07:33;100688.13;;;8.94;69.91
32733;BME280;11867;51.198;11.966;2023-04-28T00:08:35;100696.63;;;9.03;69.77
32733;BME280;11867;51.198;11.966;2023-04-28T00:09:38;100698.97;;;8.89;70.31
32733;BME280;11867;51.198;11.966;2023-04-28T00:10:42;100693.56;;;8.94;69.98
32733;BME280;11867;51.198;11.966;2023-04-28T00:11:45;100696.28;;;8.94;69.56
32733;BME280;11867;51.198;11.966;2023-04-28T00:12:47;100694.66;;;8.93;69.72
32733;BME280;11867;51.198;11.966;2023-04-28T00:13:53;100688.06;;;8.84;70.28
32733;BME280;11867;51.198;11.966;2023-04-28T00:14:55;100694.34;;;8.89;70.35
32733;BME280;11867;51.198;11.966;2023-04-28T00:15:58;100689.22;;;8.93;69.69
32733;BME280;11867;51.198;11.966;2023-04-28T00:17:00;100684.53;;;8.88;69.95
32733;BME280;11867;51.198;11.966;2023-04-28T00:18:04;100684.84;;;8.92;70.22
32733;BME280;11867;51.198;11.966;2023-04-28T00:19:06;100687.56;;;8.92;70.41
32733;BME280;11867;51.198;11.966;2023-04-28T00:20:10;100679.09;;;8.88;70.84
32733;BME280;11867;51.198;11.966;2023-04-28T00:21:12;100678.28;;;8.88;70.48
32733;BME280;11867;51.198;11.966;2023-04-28T00:22:15;100671.72;;;8.79;71.14
32733;BME280;11867;51.198;11.966;2023-04-28T00:23:17;100673.00;;;8.71;70.96
32733;BME280;11867;51.198;11.966;2023-04-28T00:24:20;100673.31;;;8.42;71.43
32733;BME280;11867;51.198;11.966;2023-04-28T00:25:22;100667.41;;;8.23;72.34
32733;BME280;11867;51.198;11.966;2023-04-28T00:26:26;100675.59;;;8.28;72.34
32733;BME280;11867;51.198;11.966;2023-04-28T00:27:28;100675.22;;;8.42;72.23
32733;BME280;11867;51.198;11.966;2023-04-28T00:28:31;100674.28;;;8.58;71.53
32733;BME280;11867;51.198;11.966;2023-04-28T00:29:35;100669.97;;;8.67;71.24
32733;BME280;11867;51.198;11.966;2023-04-28T00:30:38;100667.91;;;8.80;71.36
32733;BME280;11867;51.198;11.966;2023-04-28T00:31:40;100672.34;;;8.91;71.11
32733;BME280;11867;51.198;11.966;2023-04-28T00:32:43;100670.19;;;8.93;70.73
32733;BME280;11867;51.198;11.966;2023-04-28T00:33:46;100666.06;;;8.91;70.67
32733;BME280;11867;51.198;11.966;2023-04-28T00:34:49;100668.28;;;8.94;70.76
32733;BME280;11867;51.198;11.966;2023-04-28T00:35:57;100660.38;;;8.92;70.22
32733;BME280;11867;51.198;11.966;2023-04-28T00:37:00;100660.13;;;8.99;70.22
32733;BME280;11867;51.198;11.966;2023-04-28T00:38:02;100664.13;;;8.86;71.14
32733;BME280;11867;51.198;11.966;2023-04-28T00:39:06;100662.59;;;8.95;70.95
32733;BME280;11867;51.198;11.966;2023-04-28T00:40:08;100665.50;;;8.88;71.28
32733;BME280;11867;51.198;11.966;2023-04-28T00:41:11;100660.06;;;8.88;70.98
32733;BME280;11867;51.198;11.966;2023-04-28T00:42:15;100653.13;;;8.65;71.17
32733;BME280;11867;51.198;11.966;2023-04-28T00:43:19;100654.22;;;8.69;71.64
32733;BME280;11867;51.198;11.966;2023-04-28T00:44:21;100654.31;;;8.80;71.36
32733;BME280;11867;51.198;11.966;2023-04-28T00:45:24;100654.34;;;8.85;71.21
32733;BME280;11867;51.198;11.966;2023-04-28T00:46:28;100661.19;;;8.93;70.61
32733;BME280;11867;51.198;11.966;2023-04-28T00:47:33;100663.41;;;8.96;70.67
32733;BME280;11867;51.198;11.966;2023-04-28T00:48:35;100660.44;;;9.02;70.57
32733;BME280;11867;51.198;11.966;2023-04-28T00:49:38;100654.44;;;9.00;70.22
32733;BME280;11867;51.198;11.966;2023-04-28T00:50:41;100663.19;;;8.70;71.40
32733;BME280;11867;51.198;11.966;2023-04-28T00:51:44;100657.81;;;8.75;70.87
32733;BME280;11867;51.198;11.966;2023-04-28T00:52:46;100658.63;;;8.76;70.86
32733;BME280;11867;51.198;11.966;2023-04-28T00:53:50;100659.78;;;8.85;70.68
32733;BME280;11867;51.198;11.966;2023-04-28T00:54:52;100654.94;;;8.92;70.10
32733;BME280;11867;51.198;11.966;2023-04-28T00:55:55;100658.81;;;9.01;69.75
32733;BME280;11867;51.198;11.966;2023-04-28T00:56:58;100647.97;;;9.06;69.37
32733;BME280;11867;51.198;11.966;2023-04-28T00:58:02;100652.59;;;9.11;69.39
32733;BME280;11867;51.198;11.966;2023-04-28T00:59:05;100647.72;;;9.13;69.66
32733;BME280;11867;51.198;11.966;2023-04-28T01:00:08;100652.38;;;9.18;69.56
32733;BME280;11867;51.198;11.966;2023-04-28T01:01:10;100648.81;;;9.17;69.62
32733;BME280;11867;51.198;11.966;2023-04-28T01:02:14;100645.28;;;9.12;69.74
32733;BME280;11867;51.198;11.966;2023-04-28T01:03:18;100634.03;;;8.98;70.33
32733;BME280;11867;51.198;11.966;2023-04-28T01:04:22;100639.78;;;9.06;70.12
32733;BME280;11867;51.198;11.966;2023-04-28T01:05:25;100635.41;;;8.95;70.30
32733;BME280;11867;51.198;11.966;2023-04-28T01:06:28;100634.03;;;8.98;70.48
32733;BME280;11867;51.198;11.966;2023-04-28T01:07:32;100634.47;;;8.79;71.02
32733;BME280;11867;51.198;11.966;2023-04-28T01:08:36;100635.25;;;8.75;71.70
32733;BME280;11867;51.198;11.966;2023-04-28T01:09:40;100634.69;;;8.73;72.01
32733;BME280;11867;51.198;11.966;2023-04-28T01:10:42;100625.78;;;8.82;71.67
32733;BME280;11867;51.198;11.966;2023-04-28T01:11:46;100618.16;;;8.84;71.85
32733;BME280;11867;51.198;11.966;2023-04-28T01:12:48;100623.53;;;8.74;72.36
32733;BME280;11867;51.198;11.966;2023-04-28T01:13:52;100616.97;;;8.65;72.37
32733;BME280;11867;51.198;11.966;2023-04-28T01:14:54;100612.41;;;8.76;72.83
32733;BME280;11867;51.198;11.966;2023-04-28T01:15:58;100609.03;;;8.58;73.17
32733;BME280;11867;51.198;11.966;2023-04-28T01:17:00;100602.34;;;8.71;72.81
32733;BME280;11867;51.198;11.966;2023-04-28T01:18:03;100606.66;;;8.72;72.68
32733;BME280;11867;51.198;11.966;2023-04-28T01:19:06;100610.44;;;8.66;72.77
32733;BME280;11867;51.198;11.966;2023-04-28T01:20:09;100618.88;;;8.64;73.29
32733;BME280;11867;51.198;11.966;2023-04-28T01:21:12;100611.34;;;8.77;72.65
32733;BME280;11867;51.198;11.966;2023-04-28T01:22:15;100621.75;;;8.90;71.81
32733;BME280;11867;51.198;11.966;2023-04-28T01:23:17;100612.53;;;8.91;71.76
32733;BME280;11867;51.198;11.966;2023-04-28T01:24:22;100617.44;;;8.94;71.46
32733;BME280;11867;51.198;11.966;2023-04-28T01:25:24;100619.34;;;8.99;70.92
32733;BME280;11867;51.198;11.966;2023-04-28T01:26:27;100618.78;;;8.97;71.01
32733;BME280;11867;51.198;11.966;2023-04-28T01:27:29;100614.44;;;8.96;70.69
32733;BME280;11867;51.198;11.966;2023-04-28T01:28:32;100612.59;;;9.01;70.56
32733;BME280;11867;51.198;11.966;2023-04-28T01:29:34;100617.97;;;8.91;71.62
32733;BME280;11867;51.198;11.966;2023-04-28T01:30:37;100612.13;;;8.40;73.64
32733;BME280;11867;51.198;11.966;2023-04-28T01:31:39;100614.56;;;8.09;74.91
32733;BME280;11867;51.198;11.966;2023-04-28T01:32:42;100612.38;;;7.79;76.37
32733;BME280;11867;51.198;11.966;2023-04-28T01:33:44;100604.69;;;7.71;76.58
32733;BME280;11867;51.198;11.966;2023-04-28T01:34:47;100615.50;;;7.93;76.09
32733;BME280;11867;51.198;11.966;2023-04-28T01:35:49;100606.84;;;8.23;75.38
32733;BME280;11867;51.198;11.966;2023-04-28T01:36:52;100608.97;;;8.48;74.21
32733;BME280;11867;51.198;11.966;2023-04-28T01:37:54;100610.19;;;8.35;74.25
32733;BME280;11867;51.198;11.966;2023-04-28T01:38:57;100610.66;;;8.00;75.77
32733;BME280;11867;51.198;11.966;2023-04-28T01:40:01;100609.75;;;8.16;75.73
32733;BME280;11867;51.198;11.966;2023-04-28T01:41:04;100610.69;;;8.32;75.27
32733;BME280;11867;51.198;11.966;2023-04-28T01:42:06;100608.16;;;8.20;75.15
32733;BME280;11867;51.198;11.966;2023-04-28T01:43:08;100613.28;;;8.17;75.48
32733;BME280;11867;51.198;11.966;2023-04-28T01:44:10;100609.53;;;7.96;75.79
32733;BME280;11867;51.198;11.966;2023-04-28T01:45:14;100608.59;;;8.07;75.86
32733;BME280;11867;51.198;11.966;2023-04-28T01:46:16;100599.34;;;8.08;76.16
32733;BME280;11867;51.198;11.966;2023-04-28T01:47:19;100601.16;;;7.48;78.00
32733;BME280;11867;51.198;11.966;2023-04-28T01:48:21;100600.06;;;7.22;78.98
32733;BME280;11867;51.198;11.966;2023-04-28T01:49:24;100600.69;;;7.07;80.36
32733;BME280;11867;51.198;11.966;2023-04-28T01:50:26;100591.22;;;6.71;81.03
32733;BME280;11867;51.198;11.966;2023-04-28T01:51:29;100594.72;;;6.49;82.66
32733;BME280;11867;51.198;11.966;2023-04-28T01:52:31;100587.28;;;6.61;83.39
32733;BME280;11867;51.198;11.966;2023-04-28T01:53:34;100589.66;;;7.14;81.71
32733;BME280;11867;51.198;11.966;2023-04-28T01:54:36;100590.03;;;7.44;80.66
32733;BME280;11867;51.198;11.966;2023-04-28T01:55:41;100593.41;;;7.57;79.94
32733;BME280;11867;51.198;11.966;2023-04-28T01:56:43;100582.97;;;7.71;79.38
32733;BME280;11867;51.198;11.966;2023-04-28T01:57:46;100585.88;;;7.91;78.55
32733;BME280;11867;51.198;11.966;2023-04-28T01:58:48;100591.56;;;8.17;77.62
32733;BME280;11867;51.198;11.966;2023-04-28T01:59:51;100585.28;;;8.16;77.27
32733;BME280;11867;51.198;11.966;2023-04-28T02:00:53;100580.19;;;8.20;76.92
32733;BME280;11867;51.198;11.966;2023-04-28T02:01:56;100578.81;;;8.17;76.60
32733;BME280;11867;51.198;11.966;2023-04-28T02:02:58;100576.16;;;7.95;77.22
32733;BME280;11867;51.198;11.966;2023-04-28T02:04:01;100580.00;;;7.99;77.59
32733;BME280;11867;51.198;11.966;2023-04-28T02:05:04;100581.75;;;8.16;77.05
32733;BME280;11867;51.198;11.966;2023-04-28T02:06:07;100576.19;;;8.33;76.05
32733;BME280;11867;51.198;11.966;2023-04-28T02:07:09;100583.66;;;8.42;75.37
32733;BME280;11867;51.198;11.966;2023-04-28T02:08:12;100580.53;;;8.61;74.82
32733;BME280;11867;51.198;11.966;2023-04-28T02:09:14;100580.81;;;8.64;74.38
32733;BME280;11867;51.198;11.966;2023-04-28T02:10:17;100571.16;;;8.41;75.22
32733;BME280;11867;51.198;11.966;2023-04-28T02:11:20;100583.28;;;8.34;75.78
32733;BME280;11867;51.198;11.966;2023-04-28T02:12:23;100579.59;;;8.45;75.88
32733;BME280;11867;51.198;11.966;2023-04-28T02:13:25;100579.59;;;8.45;75.07
32733;BME280;11867;51.198;11.966;2023-04-28T02:14:28;100579.88;;;8.43;74.84
32733;BME280;11867;51.198;11.966;2023-04-28T02:15:30;100578.81;;;8.50;74.69
32733;BME280;11867;51.198;11.966;2023-04-28T02:16:33;100571.00;;;8.63;74.24
32733;BME280;11867;51.198;11.966;2023-04-28T02:17:35;100572.69;;;8.69;73.97
32733;BME280;11867;51.198;11.966;2023-04-28T02:18:38;100565.38;;;8.75;73.21
32733;BME280;11867;51.198;11.966;2023-04-28T02:19:40;100566.78;;;8.83;72.38
32733;BME280;11867;51.198;11.966;2023-04-28T02:20:43;100564.13;;;8.93;71.60
32733;BME280;11867;51.198;11.966;2023-04-28T02:21:45;100565.44;;;8.85;72.10
32733;BME280;11867;51.198;11.966;2023-04-28T02:22:48;100570.06;;;8.85;71.89
32733;BME280;11867;51.198;11.966;2023-04-28T02:23:50;100563.25;;;8.82;71.58
32733;BME280;11867;51.198;11.966;2023-04-28T02:24:53;100569.72;;;8.76;72.20
32733;BME280;11867;51.198;11.966;2023-04-28T02:25:59;100568.19;;;8.91;71.70
32733;BME280;11867;51.198;11.966;2023-04-28T02:27:04;100559.81;;;9.02;71.25
32733;BME280;11867;51.198;11.966;2023-04-28T02:28:06;100567.91;;;8.87;71.73
32733;BME280;11867;51.198;11.966;2023-04-28T02:29:08;100568.19;;;8.91;71.80
32733;BME280;11867;51.198;11.966;2023-04-28T02:30:10;100567.41;;;9.00;71.46
32733;BME280;11867;51.198;11.966;2023-04-28T02:31:14;100561.63;;;8.86;71.81
32733;BME280;11867;51.198;11.966;2023-04-28T02:32:17;100559.16;;;8.80;72.24
32733;BME280;11867;51.198;11.966;2023-04-28T02:33:20;100562.50;;;8.50;72.64
32733;BME280;11867;51.198;11.966;2023-04-28T02:34:22;100566.66;;;8.62;72.48
32733;BME280;11867;51.198;11.966;2023-04-28T02:35:26;100561.09;;;8.42;73.12
32733;BME280;11867;51.198;11.966;2023-04-28T02:36:28;100551.59;;;8.12;74.34
32733;BME280;11867;51.198;11.966;2023-04-28T02:37:32;100555.09;;;8.07;74.75
32733;BME280;11867;51.198;11.966;2023-04-28T02:38:34;100549.81;;;7.41;77.17
32733;BME280;11867;51.198;11.966;2023-04-28T02:39:37;100550.75;;;7.03;79.05
32733;BME280;11867;51.198;11.966;2023-04-28T02:40:40;100546.72;;;6.66;80.41
32733;BME280;11867;51.198;11.966;2023-04-28T02:41:43;100544.06;;;6.72;80.77
32733;BME280;11867;51.198;11.966;2023-04-28T02:42:47;100546.50;;;6.90;80.45
32733;BME280;11867;51.198;11.966;2023-04-28T02:43:49;100554.41;;;7.14;79.65
32733;BME280;11867;51.198;11.966;2023-04-28T02:44:52;100554.34;;;7.58;78.42
32733;BME280;11867;51.198;11.966;2023-04-28T02:45:55;100554.66;;;7.88;76.85
32733;BME280;11867;51.198;11.966;2023-04-28T02:46:57;100556.44;;;8.10;75.89
32733;BME280;11867;51.198;11.966;2023-04-28T02:48:01;100555.56;;;8.32;74.80
32733;BME280;11867;51.198;11.966;2023-04-28T02:49:05;100544.44;;;8.33;74.75
32733;BME280;11867;51.198;11.966;2023-04-28T02:50:08;100545.84;;;8.41;74.45
32733;BME280;11867;51.198;11.966;2023-04-28T02:51:10;100556.28;;;8.54;74.46
32733;BME280;11867;51.198;11.966;2023-04-28T02:52:14;100552.59;;;8.71;73.70
32733;BME280;11867;51.198;11.966;2023-04-28T02:53:17;100553.16;;;8.78;73.03
32733;BME280;11867;51.198;11.966;2023-04-28T02:54:20;100546.06;;;8.72;73.16
32733;BME280;11867;51.198;11.966;2023-04-28T02:55:28;100545.47;;;8.64;73.92
32733;BME280;11867;51.198;11.966;2023-04-28T02:56:31;100540.88;;;8.70;73.69
32733;BME280;11867;51.198;11.966;2023-04-28T02:57:33;100542.59;;;8.81;73.30
32733;BME280;11867;51.198;11.966;2023-04-28T02:58:38;100541.78;;;8.81;73.04
32733;BME280;11867;51.198;11.966;2023-04-28T02:59:40;100537.66;;;8.78;73.21
32733;BME280;11867;51.198;11.966;2023-04-28T03:00:43;100541.28;;;8.89;72.95
32733;BME280;11867;51.198;11.966;2023-04-28T03:01:45;100534.38;;;8.76;73.42
32733;BME280;11867;51.198;11.966;2023-04-28T03:02:49;100536.47;;;8.59;73.88
32733;BME280;11867;51.198;11.966;2023-04-28T03:03:51;100531.34;;;8.62;73.76
32733;BME280;11867;51.198;11.966;2023-04-28T03:04:54;100521.84;;;8.70;73.93
32733;BME280;11867;51.198;11.966;2023-04-28T03:05:56;100515.94;;;8.83;73.21
32733;BME280;11867;51.198;11.966;2023-04-28T03:06:59;100519.78;;;8.87;72.90
32733;BME280;11867;51.198;11.966;2023-04-28T03:08:02;100517.88;;;8.88;72.40
32733;BME280;11867;51.198;11.966;2023-04-28T03:09:05;100509.72;;;8.88;72.51
32733;BME280;11867;51.198;11.966;2023-04-28T03:10:07;100512.72;;;8.92;72.51
32733;BME280;11867;51.198;11.966;2023-04-28T03:11:09;100509.19;;;8.91;72.47
32733;BME280;11867;51.198;11.966;2023-04-28T03:12:12;100504.56;;;8.92;72.90
32733;BME280;11867;51.198;11.966;2023-04-28T03:13:14;100508.91;;;8.87;72.61
32733;BME280;11867;51.198;11.966;2023-04-28T03:14:19;100509.75;;;8.98;72.15
32733;BME280;11867;51.198;11.966;2023-04-28T03:15:21;100499.41;;;8.95;72.15
32733;BME280;11867;51.198;11.966;2023-04-28T03:16:24;100500.19;;;8.85;72.70
32733;BME280;11867;51.198;11.966;2023-04-28T03:17:26;100501.00;;;8.86;72.86
32733;BME280;11867;51.198;11.966;2023-04-28T03:18:29;100508.69;;;8.46;74.10
32733;BME280;11867;51.198;11.966;2023-04-28T03:19:31;100509.38;;;8.32;74.94
32733;BME280;11867;51.198;11.966;2023-04-28T03:20:34;100501.09;;;8.48;74.71
32733;BME280;11867;51.198;11.966;2023-04-28T03:21:37;100498.25;;;8.33;75.16
32733;BME280;11867;51.198;11.966;2023-04-28T03:22:41;100499.16;;;8.44;75.01
32733;BME280;11867;51.198;11.966;2023-04-28T03:23:43;100494.28;;;8.51;74.32
32733;BME280;11867;51.198;11.966;2023-04-28T03:24:46;100495.41;;;8.50;74.41
32733;BME280;11867;51.198;11.966;2023-04-28T03:25:48;100496.47;;;8.49;74.67
32733;BME280;11867;51.198;11.966;2023-04-28T03:26:51;100493.53;;;8.61;73.96
32733;BME280;11867;51.198;11.966;2023-04-28T03:27:53;100487.31;;;8.65;73.90
32733;BME280;11867;51.198;11.966;2023-04-28T03:28:56;100493.84;;;8.69;73.92
32733;BME280;11867;51.198;11.966;2023-04-28T03:30:02;100487.34;;;8.71;73.77
32733;BME280;11867;51.198;11.966;2023-04-28T03:31:06;100491.13;;;8.64;74.22
32733;BME280;11867;51.198;11.966;2023-04-28T03:32:07;100490.03;;;8.65;74.00
32733;BME280;11867;51.198;11.966;2023-04-28T03:33:10;100490.63;;;8.73;73.56
32733;BME280;11867;51.198;11.966;2023-04-28T03:34:12;100485.69;;;8.69;73.32
32733;BME280;11867;51.198;11.966;2023-04-28T03:35:15;100486.78;;;8.68;73.50
32733;BME280;11867;51.198;11.966;2023-04-28T03:36:17;100486.00;;;8.73;73.76
32733;BME280;11867;51.198;11.966;2023-04-28T03:37:20;100492.69;;;8.55;74.43
32733;BME280;11867;51.198;11.966;2023-04-28T03:38:22;100476.94;;;8.52;74.55
32733;BME280;11867;51.198;11.966;2023-04-28T03:39:25;100482.88;;;8.49;74.68
32733;BME280;11867;51.198;11.966;2023-04-28T03:40:27;100473.91;;;8.48;74.80
32733;BME280;11867;51.198;11.966;2023-04-28T03:41:30;100475.00;;;8.47;74.51
32733;BME280;11867;51.198;11.966;2023-04-28T03:42:32;100479.66;;;8.15;75.38
32733;BME280;11867;51.198;11.966;2023-04-28T03:43:35;100478.03;;;7.49;78.36
32733;BME280;11867;51.198;11.966;2023-04-28T03:44:38;100476.69;;;7.24;79.58
32733;BME280;11867;51.198;11.966;2023-04-28T03:45:42;100479.81;;;7.11;80.95
32733;BME280;11867;51.198;11.966;2023-04-28T03:46:44;100482.00;;;7.41;79.86
32733;BME280;11867;51.198;11.966;2023-04-28T03:47:47;100473.56;;;7.65;78.82
32733;BME280;11867;51.198;11.966;2023-04-28T03:48:49;100478.31;;;7.80;77.99
32733;BME280;11867;51.198;11.966;2023-04-28T03:49:52;100467.81;;;7.94;76.93
32733;BME280;11867;51.198;11.966;2023-04-28T03:50:54;100464.59;;;8.02;76.18
32733;BME280;11867;51.198;11.966;2023-04-28T03:51:57;100465.78;;;8.11;75.93
32733;BME280;11867;51.198;11.966;2023-04-28T03:52:59;100459.28;;;8.17;75.58
32733;BME280;11867;51.198;11.966;2023-04-28T03:54:03;100452.25;;;8.21;75.55
32733;BME280;11867;51.198;11.966;2023-04-28T03:55:05;100457.69;;;8.21;75.68
32733;BME280;11867;51.198;11.966;2023-04-28T03:56:08;100447.56;;;8.12;76.06
32733;BME280;11867;51.198;11.966;2023-04-28T03:57:10;100456.84;;;8.16;75.90
32733;BME280;11867;51.198;11.966;2023-04-28T03:58:13;100454.97;;;8.21;75.96
32733;BME280;11867;51.198;11.966;2023-04-28T03:59:15;100458.75;;;8.20;76.00
32733;BME280;11867;51.198;11.966;2023-04-28T04:00:18;100454.91;;;8.11;76.22
32733;BME280;11867;51.198;11.966;2023-04-28T04:01:22;100455.53;;;8.23;75.50
32733;BME280;11867;51.198;11.966;2023-04-28T04:02:26;100454.94;;;8.16;75.64
32733;BME280;11867;51.198;11.966;2023-04-28T04:03:29;100456.03;;;8.20;75.41
32733;BME280;11867;51.198;11.966;2023-04-28T04:04:34;100447.91;;;8.20;75.32
32733;BME280;11867;51.198;11.966;2023-04-28T04:05:38;100455.72;;;8.12;76.01
32733;BME280;11867;51.198;11.966;2023-04-28T04:06:41;100446.28;;;8.19;76.04
32733;BME280;11867;51.198;11.966;2023-04-28T04:07:43;100456.84;;;8.16;75.92
32733;BME280;11867;51.198;11.966;2023-04-28T04:08:46;100460.09;;;8.18;75.98
32733;BME280;11867;51.198;11.966;2023-04-28T04:09:49;100456.66;;;8.27;75.67
32733;BME280;11867;51.198;11.966;2023-04-28T04:10:52;100457.75;;;8.32;75.31
32733;BME280;11867;51.198;11.966;2023-04-28T04:11:55;100455.59;;;8.34;75.22
32733;BME280;11867;51.198;11.966;2023-04-28T04:12:59;100453.94;;;8.33;75.26
32733;BME280;11867;51.198;11.966;2023-04-28T04:14:01;100453.88;;;8.22;75.43
32733;BME280;11867;51.198;11.966;2023-04-28T04:15:05;100456.34;;;8.24;75.61
32733;BME280;11867;51.198;11.966;2023-04-28T04:16:07;100462.03;;;8.22;75.58
32733;BME280;11867;51.198;11.966;2023-04-28T04:17:11;100455.53;;;8.23;75.41
32733;BME280;11867;51.198;11.966;2023-04-28T04:18:13;100457.16;;;8.24;74.95
32733;BME280;11867;51.198;11.966;2023-04-28T04:19:16;100452.84;;;8.28;74.97
32733;BME280;11867;51.198;11.966;2023-04-28T04:20:18;100455.59;;;8.34;74.77
32733;BME280;11867;51.198;11.966;2023-04-28T04:21:22;100442.03;;;8.39;74.87
32733;BME280;11867;51.198;11.966;2023-04-28T04:22:24;100439.63;;;8.42;74.77
32733;BME280;11867;51.198;11.966;2023-04-28T04:23:26;100446.16;;;8.41;74.73
32733;BME280;11867;51.198;11.966;2023-04-28T04:24:28;100436.41;;;8.51;74.45
32733;BME280;11867;51.198;11.966;2023-04-28T04:25:31;100434.25;;;8.47;74.74
32733;BME280;11867;51.198;11.966;2023-04-28T04:26:34;100435.38;;;7.77;77.20
32733;BME280;11867;51.198;11.966;2023-04-28T04:27:37;100433.50;;;7.77;78.11
32733;BME280;11867;51.198;11.966;2023-04-28T04:28:39;100435.44;;;7.87;77.58
32733;BME280;11867;51.198;11.966;2023-04-28T04:29:42;100427.19;;;8.09;76.89
32733;BME280;11867;51.198;11.966;2023-04-28T04:30:44;100423.75;;;8.24;76.32
32733;BME280;11867;51.198;11.966;2023-04-28T04:31:47;100427.38;;;8.40;76.08
32733;BME280;11867;51.198;11.966;2023-04-28T04:32:51;100428.81;;;8.53;75.55
32733;BME280;11867;51.198;11.966;2023-04-28T04:33:55;100428.59;;;8.64;74.99
32733;BME280;11867;51.198;11.966;2023-04-28T04:34:57;100431.63;;;8.73;74.33
32733;BME280;11867;51.198;11.966;2023-04-28T04:36:00;100415.63;;;8.77;74.41
32733;BME280;11867;51.198;11.966;2023-04-28T04:37:02;100420.41;;;8.54;74.51
32733;BME280;11867;51.198;11.966;2023-04-28T04:38:05;100421.00;;;8.66;74.45
32733;BME280;11867;51.198;11.966;2023-04-28T04:39:07;100425.66;;;8.76;73.81
32733;BME280;11867;51.198;11.966;2023-04-28T04:40:10;100420.78;;;8.83;73.65
32733;BME280;11867;51.198;11.966;2023-04-28T04:41:12;100418.63;;;8.85;73.73
32733;BME280;11867;51.198;11.966;2023-04-28T04:42:15;100418.91;;;8.89;73.17
32733;BME280;11867;51.198;11.966;2023-04-28T04:43:26;100421.91;;;8.98;73.07
32733;BME280;11867;51.198;11.966;2023-04-28T04:44:28;100418.94;;;8.99;73.18
32733;BME280;11867;51.198;11.966;2023-04-28T04:45:51;100410.50;;;9.01;73.22
32733;BME280;11867;51.198;11.966;2023-04-28T04:46:54;100413.75;;;8.98;72.62
32733;BME280;11867;51.198;11.966;2023-04-28T04:47:58;100413.75;;;9.03;72.34
32733;BME280;11867;51.198;11.966;2023-04-28T04:49:00;100411.81;;;8.88;73.13
32733;BME280;11867;51.198;11.966;2023-04-28T04:50:03;100407.50;;;9.02;72.77
32733;BME280;11867;51.198;11.966;2023-04-28T04:51:06;100410.75;;;8.94;72.88
32733;BME280;11867;51.198;11.966;2023-04-28T04:52:07;100415.66;;;8.92;73.79
32733;BME280;11867;51.198;11.966;2023-04-28T04:53:10;100416.47;;;8.98;73.50
32733;BME280;11867;51.198;11.966;2023-04-28T04:54:16;100406.16;;;9.00;72.97
32733;BME280;11867;51.198;11.966;2023-04-28T04:55:19;100416.16;;;8.84;74.25
32733;BME280;11867;51.198;11.966;2023-04-28T04:56:22;100411.81;;;8.88;73.00
32733;BME280;11867;51.198;11.966;2023-04-28T04:57:24;100409.28;;;8.66;73.55
32733;BME280;11867;51.198;11.966;2023-04-28T04:58:27;100404.78;;;8.87;72.97
32733;BME280;11867;51.198;11.966;2023-04-28T04:59:29;100408.06;;;8.99;73.24
32733;BME280;11867;51.198;11.966;2023-04-28T05:00:31;100406.44;;;9.03;73.06
32733;BME280;11867;51.198;11.966;2023-04-28T05:01:34;100408.31;;;9.03;71.94
32733;BME280;11867;51.198;11.966;2023-04-28T05:02:37;100401.56;;;9.21;71.42
32733;BME280;11867;51.198;11.966;2023-04-28T05:03:40;100414.91;;;9.22;71.00
32733;BME280;11867;51.198;11.966;2023-04-28T05:04:43;100406.75;;;9.38;70.72
32733;BME280;11867;51.198;11.966;2023-04-28T05:05:45;100404.28;;;9.46;70.58
32733;BME280;11867;51.198;11.966;2023-04-28T05:06:48;100398.88;;;9.52;70.05
32733;BME280;11867;51.198;11.966;2023-04-28T05:07:50;100391.78;;;9.45;70.20
32733;BME280;11867;51.198;11.966;2023-04-28T05:08:53;100404.84;;;9.64;69.80
32733;BME280;11867;51.198;11.966;2023-04-28T05:09:57;100400.47;;;9.73;69.77
32733;BME280;11867;51.198;11.966;2023-04-28T05:10:59;100406.47;;;9.85;69.13
32733;BME280;11867;51.198;11.966;2023-04-28T05:12:02;100398.06;;;9.82;68.92
32733;BME280;11867;51.198;11.966;2023-04-28T05:13:05;100405.09;;;9.93;68.35
32733;BME280;11867;51.198;11.966;2023-04-28T05:14:07;100400.75;;;9.97;68.15
32733;BME280;11867;51.198;11.966;2023-04-28T05:15:10;100399.94;;;9.86;67.83
32733;BME280;11867;51.198;11.966;2023-04-28T05:16:12;100401.00;;;10.01;67.65
32733;BME280;11867;51.198;11.966;2023-04-28T05:17:15;100393.34;;;10.08;67.50
32733;BME280;11867;51.198;11.966;2023-04-28T05:18:17;100395.78;;;10.15;67.31
32733;BME280;11867;51.198;11.966;2023-04-28T05:19:22;100390.66;;;10.03;67.20
32733;BME280;11867;51.198;11.966;2023-04-28T05:20:24;100399.13;;;9.81;68.49
32733;BME280;11867;51.198;11.966;2023-04-28T05:21:26;100387.41;;;9.80;68.78
32733;BME280;11867;51.198;11.966;2023-04-28T05:22:29;100387.13;;;9.92;68.91
32733;BME280;11867;51.198;11.966;2023-04-28T05:23:32;100396.13;;;9.93;69.16
32733;BME280;11867;51.198;11.966;2023-04-28T05:24:34;100389.28;;;10.00;69.22
32733;BME280;11867;51.198;11.966;2023-04-28T05:25:37;100380.84;;;10.07;68.86
32733;BME280;11867;51.198;11.966;2023-04-28T05:26:39;100386.34;;;9.76;68.58
32733;BME280;11867;51.198;11.966;2023-04-28T05:27:42;100393.94;;;9.69;69.14
32733;BME280;11867;51.198;11.966;2023-04-28T05:28:44;100375.97;;;9.83;69.06